Time;durP1;ratioP1;P1;durP2;ratioP2;P2;SDS_P1;SDS_P2;PMS_P1;PMS_P2;Temp;Humidity;BMP_temperature;BMP_pressure;BME280_temperature;BME280_humidity;BME280_pressure;Samples;Min_cycle;Max_cycle;Signal;HPM_P1;HPM_P2
2021/11/28 00:01:55;;;;;;;3.38;1.63;;;17.70;44.40;;;;;;5057501;28;20511;-79
2021/11/28 00:04:22;;;;;;;2.97;1.50;;;17.70;44.40;;;;;;5059911;28;20109;-79
2021/11/28 00:09:43;;;;;;;4.35;1.85;;;17.60;44.30;;;;;;5064778;28;20095;-80
2021/11/28 00:14:39;;;;;;;2.60;1.75;;;17.50;45.60;;;;;;5073920;28;20202;-79
2021/11/28 00:17:06;;;;;;;2.00;1.48;;;17.50;44.50;;;;;;5067510;28;20051;-79
2021/11/28 00:19:31;;;;;;;2.90;1.80;;;17.50;44.50;;;;;;5066360;28;20029;-80
2021/11/28 00:21:57;;;;;;;3.80;1.83;;;17.50;44.60;;;;;;5067439;28;20081;-80
2021/11/28 00:24:23;;;;;;;3.55;1.70;;;17.40;44.70;;;;;;5049394;28;20123;-79
2021/11/28 00:26:49;;;;;;;4.00;2.08;;;17.40;44.70;;;;;;5066615;28;20044;-79
2021/11/28 00:29:15;;;;;;;2.85;1.58;;;17.40;44.90;;;;;;5066602;28;20056;-79
2021/11/28 00:31:41;;;;;;;2.70;1.42;;;17.40;44.70;;;;;;5065374;28;20052;-79
2021/11/28 00:34:07;;;;;;;2.42;1.45;;;17.40;44.60;;;;;;5053925;28;20077;-80
2021/11/28 00:36:32;;;;;;;2.08;1.40;;;17.40;44.80;;;;;;5072248;28;20556;-80
2021/11/28 00:38:58;;;;;;;2.40;1.48;;;17.30;44.70;;;;;;5052530;28;20052;-80
2021/11/28 00:41:24;;;;;;;4.40;1.33;;;17.30;44.70;;;;;;5069445;28;20055;-80
2021/11/28 00:43:50;;;;;;;2.65;1.50;;;17.40;45.10;;;;;;5055239;28;20295;-80
2021/11/28 00:46:16;;;;;;;3.05;1.63;;;17.40;45.00;;;;;;5051095;28;20370;-80
2021/11/28 00:48:44;;;;;;;2.20;1.50;;;17.40;45.00;;;;;;5048183;28;20369;-80
2021/11/28 00:53:42;;;;;;;1.33;1.15;;;17.30;44.90;;;;;;5068554;28;20082;-80
2021/11/28 00:56:08;;;;;;;5.45;1.65;;;17.30;44.80;;;;;;5069065;28;20368;-80
2021/11/28 00:58:34;;;;;;;1.70;1.35;;;17.30;44.80;;;;;;5069831;28;20058;-80
2021/11/28 01:00:59;;;;;;;3.17;1.60;;;17.30;44.90;;;;;;5068846;28;20793;-80
2021/11/28 01:03:25;;;;;;;3.03;1.30;;;17.30;44.80;;;;;;5032214;28;20077;-79
2021/11/28 01:05:52;;;;;;;2.17;1.20;;;17.30;44.80;;;;;;5053364;28;20660;-80
2021/11/28 01:08:18;;;;;;;1.63;1.42;;;17.30;44.80;;;;;;5063425;28;20398;-80
2021/11/28 01:10:45;;;;;;;4.25;1.45;;;17.30;44.70;;;;;;5055280;28;20045;-80
2021/11/28 01:13:11;;;;;;;2.20;1.40;;;17.20;44.60;;;;;;5068393;28;20053;-80
2021/11/28 01:15:36;;;;;;;2.75;1.33;;;17.20;44.80;;;;;;5068668;28;20405;-80
2021/11/28 01:18:03;;;;;;;3.55;1.40;;;17.20;44.80;;;;;;5069413;28;20082;-80
2021/11/28 01:20:28;;;;;;;2.85;1.48;;;17.20;44.80;;;;;;5044685;28;20052;-80
2021/11/28 01:22:54;;;;;;;1.77;1.30;;;17.20;44.70;;;;;;5054434;28;20048;-80
2021/11/28 01:25:20;;;;;;;2.65;1.20;;;17.20;44.70;;;;;;5072729;28;20052;-80
2021/11/28 01:27:46;;;;;;;2.05;1.20;;;17.20;44.70;;;;;;5073098;28;20040;-80
2021/11/28 01:30:12;;;;;;;1.85;1.58;;;17.10;44.80;;;;;;5072415;28;20086;-79
2021/11/28 01:32:40;;;;;;;3.35;1.40;;;17.10;44.80;;;;;;5050427;28;20053;-80
2021/11/28 01:35:08;;;;;;;1.30;1.20;;;17.10;44.70;;;;;;5049387;28;20400;-77
2021/11/28 01:37:35;;;;;;;1.73;1.17;;;17.10;44.70;;;;;;5044137;28;20127;-77
2021/11/28 01:40:07;;;;;;;3.35;1.52;;;17.10;45.30;;;;;;5073442;28;20048;-77
2021/11/28 01:42:44;;;;;;;3.92;1.60;;;17.10;45.70;;;;;;5071611;28;20480;-78
2021/11/28 01:45:27;;;;;;;9.25;1.70;;;17.10;45.50;;;;;;5069476;28;20151;-78
2021/11/28 01:47:55;;;;;;;8.02;1.27;;;17.10;45.40;;;;;;5059120;28;20048;-78
2021/11/28 01:50:24;;;;;;;1.40;1.30;;;17.10;45.40;;;;;;5065221;28;20044;-79
2021/11/28 01:52:50;;;;;;;1.23;1.13;;;17.10;45.30;;;;;;5084348;28;20063;-78
2021/11/28 01:55:23;;;;;;;1.45;1.10;;;17.00;45.20;;;;;;5085763;28;20494;-78
2021/11/28 01:57:50;;;;;;;4.50;1.50;;;17.00;45.20;;;;;;5065450;28;20051;-78
2021/11/28 02:00:20;;;;;;;1.70;1.60;;;17.10;45.30;;;;;;5085174;28;20044;-79
2021/11/28 02:02:46;;;;;;;1.70;1.60;;;17.00;45.00;;;;;;5047136;28;20369;-78
2021/11/28 02:05:14;;;;;;;1.75;1.45;;;17.00;45.10;;;;;;5086806;28;20040;-78
2021/11/28 02:07:40;;;;;;;1.48;1.38;;;17.00;44.90;;;;;;5080822;28;20052;-79
2021/11/28 02:10:06;;;;;;;2.00;1.17;;;17.00;45.00;;;;;;5087833;28;20044;-79
2021/11/28 02:12:32;;;;;;;1.17;1.08;;;17.00;45.00;;;;;;5075572;28;20054;-79
2021/11/28 02:14:59;;;;;;;2.55;1.33;;;17.00;45.00;;;;;;5071299;28;20224;-79
2021/11/28 02:17:26;;;;;;;3.33;1.35;;;17.00;45.00;;;;;;5071738;28;20052;-79
2021/11/28 02:19:52;;;;;;;2.88;1.17;;;16.90;44.90;;;;;;5073826;28;20233;-78
2021/11/28 02:22:18;;;;;;;2.95;1.33;;;16.90;44.90;;;;;;5079254;28;20463;-78
2021/11/28 02:24:44;;;;;;;2.03;1.05;;;17.00;44.90;;;;;;5070700;28;20128;-78
2021/11/28 02:27:10;;;;;;;1.52;1.42;;;16.90;44.80;;;;;;5072703;28;20435;-78
2021/11/28 02:29:39;;;;;;;3.00;1.73;;;16.90;44.80;;;;;;5052684;28;20055;-78
2021/11/28 02:32:06;;;;;;;3.70;1.40;;;17.00;44.80;;;;;;5072353;28;20056;-78
2021/11/28 02:34:32;;;;;;;1.42;1.17;;;16.90;44.80;;;;;;5071320;28;20059;-78
2021/11/28 02:36:57;;;;;;;1.25;1.15;;;16.90;44.80;;;;;;5071040;28;20048;-78
2021/11/28 02:39:23;;;;;;;1.75;1.20;;;16.90;44.80;;;;;;5053646;28;20079;-77
2021/11/28 02:41:49;;;;;;;2.05;1.45;;;16.90;44.80;;;;;;5071708;28;20045;-77
2021/11/28 02:44:16;;;;;;;1.70;1.20;;;16.90;44.70;;;;;;5071322;28;20049;-78
2021/11/28 02:46:44;;;;;;;1.30;1.20;;;16.90;44.80;;;;;;5070802;28;20113;-79
2021/11/28 02:49:11;;;;;;;1.20;1.02;;;16.90;44.70;;;;;;5069989;28;20110;-77
2021/11/28 02:51:38;;;;;;;1.15;1.05;;;16.80;44.80;;;;;;5072724;28;20113;-77
2021/11/28 02:54:06;;;;;;;1.50;1.10;;;16.90;44.80;;;;;;5082412;28;20507;-77
2021/11/28 02:56:33;;;;;;;1.42;1.27;;;16.80;44.70;;;;;;5070927;28;20072;-77
2021/11/28 02:58:59;;;;;;;1.48;1.20;;;16.80;44.80;;;;;;5070481;28;20094;-77
2021/11/28 03:01:25;;;;;;;3.33;1.20;;;16.80;44.80;;;;;;5070958;28;20052;-77
2021/11/28 03:03:52;;;;;;;1.40;1.30;;;16.80;44.70;;;;;;5063796;28;20041;-77
2021/11/28 03:06:18;;;;;;;1.60;1.30;;;16.80;44.80;;;;;;5053553;28;20057;-77
2021/11/28 03:08:44;;;;;;;1.50;1.40;;;16.80;45.90;;;;;;5070179;28;20048;-79
2021/11/28 03:11:12;;;;;;;2.20;1.48;;;16.80;44.70;;;;;;5056684;28;20051;-77
2021/11/28 03:13:48;;;;;;;2.17;1.30;;;16.80;44.80;;;;;;5070980;28;20044;-77
2021/11/28 03:16:16;;;;;;;3.85;1.40;;;16.80;44.80;;;;;;5070703;28;20225;-77
2021/11/28 03:18:43;;;;;;;3.53;1.33;;;16.70;44.70;;;;;;5070613;28;20059;-79
2021/11/28 03:21:22;;;;;;;1.30;1.20;;;16.70;45.80;;;;;;5070117;28;20124;-77
2021/11/28 03:23:49;;;;;;;1.67;1.30;;;16.70;44.70;;;;;;5071260;28;20058;-78
2021/11/28 03:26:30;;;;;;;1.40;1.08;;;16.70;44.70;;;;;;5070307;28;20049;-77
2021/11/28 03:29:00;;;;;;;1.92;1.20;;;16.70;44.60;;;;;;5069724;28;20516;-77
2021/11/28 03:31:28;;;;;;;;;;;16.70;44.60;;;;;;5070145;28;20522;-78
2021/11/28 03:33:54;;;;;;;1.23;1.13;;;16.70;44.60;;;;;;5070618;28;19927;-78
2021/11/28 03:36:24;;;;;;;2.33;1.55;;;16.70;44.60;;;;;;5068785;28;20055;-77
2021/11/28 03:38:50;;;;;;;2.60;1.45;;;16.70;44.70;;;;;;5051726;28;20059;-77
2021/11/28 03:41:19;;;;;;;2.90;1.30;;;16.70;44.60;;;;;;5052162;28;20075;-77
2021/11/28 03:43:46;;;;;;;1.30;1.30;;;16.70;44.60;;;;;;5069996;28;20098;-79
2021/11/28 03:46:12;;;;;;;2.15;1.13;;;16.70;44.70;;;;;;5070026;28;20067;-78
2021/11/28 03:48:38;;;;;;;1.58;1.48;;;16.70;44.50;;;;;;5069962;28;20044;-76
2021/11/28 03:51:04;;;;;;;1.38;1.20;;;16.70;44.50;;;;;;5051491;28;20048;-78
2021/11/28 03:53:30;;;;;;;1.52;1.20;;;16.70;44.60;;;;;;5052223;28;20059;-77
2021/11/28 03:55:56;;;;;;;1.45;1.20;;;16.60;44.60;;;;;;5073690;28;20105;-77
2021/11/28 03:58:21;;;;;;;1.17;1.08;;;16.60;44.60;;;;;;5052014;28;20459;-76
2021/11/28 04:00:48;;;;;;;1.60;1.27;;;16.60;45.60;;;;;;5069573;28;20099;-79
2021/11/28 04:03:14;;;;;;;1.35;1.25;;;16.60;44.60;;;;;;5069901;28;20122;-77
2021/11/28 04:05:40;;;;;;;1.73;1.30;;;16.60;44.60;;;;;;5071670;28;20453;-78
2021/11/28 04:08:07;;;;;;;1.90;1.30;;;16.60;44.50;;;;;;5069503;28;20414;-77
2021/11/28 04:10:32;;;;;;;1.98;1.30;;;16.60;44.60;;;;;;5055595;28;20106;-77
2021/11/28 04:12:58;;;;;;;2.15;1.20;;;16.60;44.60;;;;;;5069093;28;20465;-77
2021/11/28 04:15:24;;;;;;;1.00;1.00;;;16.50;44.40;;;;;;5054266;28;20440;-77
2021/11/28 04:17:50;;;;;;;1.30;1.20;;;16.50;44.40;;;;;;5053523;28;20044;-78
2021/11/28 04:20:16;;;;;;;1.98;1.20;;;16.60;44.50;;;;;;5069687;28;20052;-77
2021/11/28 04:22:42;;;;;;;2.55;1.27;;;16.50;44.40;;;;;;5069579;28;20040;-76
2021/11/28 04:25:11;;;;;;;1.25;1.17;;;16.60;45.60;;;;;;5069097;28;20041;-77
2021/11/28 04:27:37;;;;;;;1.35;1.17;;;16.50;44.60;;;;;;5070471;28;20041;-77
2021/11/28 04:30:05;;;;;;;1.40;1.30;;;16.50;44.60;;;;;;5069012;28;20043;-77
2021/11/28 04:32:31;;;;;;;1.10;1.00;;;16.50;44.60;;;;;;5069017;28;20056;-76
2021/11/28 04:34:57;;;;;;;1.25;1.15;;;16.50;44.50;;;;;;5050953;28;20052;-77
2021/11/28 04:37:22;;;;;;;1.40;1.30;;;16.50;45.60;;;;;;5079463;28;20044;-76
2021/11/28 04:39:49;;;;;;;2.33;1.48;;;16.40;44.50;;;;;;5072521;28;20167;-77
2021/11/28 04:42:14;;;;;;;1.55;1.30;;;16.40;44.60;;;;;;5069110;28;20110;-77
2021/11/28 04:44:40;;;;;;;1.30;1.20;;;16.50;44.60;;;;;;5069331;28;20472;-77
2021/11/28 04:47:06;;;;;;;1.27;1.20;;;16.50;44.60;;;;;;5069843;28;20119;-77
2021/11/28 04:49:32;;;;;;;1.17;1.08;;;16.40;44.50;;;;;;5069201;28;20102;-77
2021/11/28 04:51:58;;;;;;;1.35;1.10;;;16.40;44.60;;;;;;5053196;28;20450;-76
2021/11/28 04:54:24;;;;;;;1.90;1.20;;;16.40;44.50;;;;;;5073555;28;20106;-77
2021/11/28 04:56:50;;;;;;;2.53;1.55;;;16.40;44.50;;;;;;5073084;28;20033;-76
2021/11/28 04:59:16;;;;;;;1.58;1.33;;;16.40;44.50;;;;;;5073715;28;20051;-77
2021/11/28 05:01:42;;;;;;;1.50;1.40;;;16.40;44.50;;;;;;5071875;28;20101;-77
2021/11/28 05:04:10;;;;;;;1.20;1.10;;;16.40;44.50;;;;;;5072683;28;20091;-78
2021/11/28 05:06:36;;;;;;;1.20;1.10;;;16.40;44.50;;;;;;5073003;28;20484;-78
2021/11/28 05:09:03;;;;;;;2.17;1.13;;;16.30;44.50;;;;;;5071752;28;20087;-77
2021/11/28 05:11:29;;;;;;;1.88;1.33;;;16.30;44.50;;;;;;5067085;28;20041;-77
2021/11/28 05:13:54;;;;;;;1.20;1.10;;;16.40;44.60;;;;;;5072729;28;20404;-78
2021/11/28 05:16:20;;;;;;;1.42;1.20;;;16.30;44.40;;;;;;5038367;28;20044;-77
2021/11/28 05:18:46;;;;;;;1.13;1.05;;;16.30;44.40;;;;;;5073948;28;20107;-77
2021/11/28 05:21:12;;;;;;;2.45;1.00;;;16.30;44.50;;;;;;5071750;28;20090;-77
2021/11/28 05:23:38;;;;;;;2.28;1.02;;;16.30;44.60;;;;;;5055281;28;20045;-77
2021/11/28 05:26:04;;;;;;;1.40;1.25;;;16.30;44.60;;;;;;5072264;28;20045;-78
2021/11/28 05:28:30;;;;;;;0.95;0.93;;;16.30;44.60;;;;;;5072900;28;20078;-77
2021/11/28 05:30:55;;;;;;;1.17;1.10;;;16.20;44.60;;;;;;5073631;28;20044;-79
2021/11/28 05:33:21;;;;;;;0.85;0.85;;;16.30;44.60;;;;;;5072244;28;20098;-77
2021/11/28 05:35:47;;;;;;;2.05;1.30;;;16.20;44.50;;;;;;5072373;28;20056;-78
2021/11/28 05:38:13;;;;;;;2.03;1.20;;;16.30;44.60;;;;;;5071866;28;20041;-77
2021/11/28 05:40:39;;;;;;;1.90;1.38;;;16.20;44.60;;;;;;5072693;28;20040;-77
2021/11/28 05:43:04;;;;;;;1.95;1.23;;;16.20;44.60;;;;;;5071708;28;20071;-78
2021/11/28 05:45:30;;;;;;;1.20;1.10;;;16.20;44.50;;;;;;5072604;28;20099;-77
2021/11/28 05:47:56;;;;;;;1.42;1.13;;;16.20;44.60;;;;;;5054555;28;20495;-79
2021/11/28 05:50:25;;;;;;;1.30;0.95;;;16.30;44.70;;;;;;5076043;28;20036;-77
2021/11/28 05:52:51;;;;;;;1.45;1.08;;;16.20;44.60;;;;;;5080254;28;20048;-77
2021/11/28 05:55:17;;;;;;;1.23;1.10;;;16.20;44.60;;;;;;5053988;28;20101;-76
2021/11/28 05:57:43;;;;;;;1.67;1.42;;;16.20;44.60;;;;;;5072161;28;20044;-77
2021/11/28 06:00:12;;;;;;;1.40;1.10;;;16.20;44.60;;;;;;5071503;28;20032;-76
2021/11/28 06:02:38;;;;;;;1.33;1.23;;;16.20;44.60;;;;;;5075803;28;20044;-76
2021/11/28 06:05:05;;;;;;;0.90;0.90;;;16.10;44.60;;;;;;5053451;28;20075;-77
2021/11/28 06:07:31;;;;;;;2.38;1.73;;;16.10;44.60;;;;;;5072000;28;20598;-76
2021/11/28 06:09:57;;;;;;;2.67;1.50;;;16.20;44.60;;;;;;5044843;28;20045;-78
2021/11/28 06:12:23;;;;;;;1.95;1.13;;;16.10;44.60;;;;;;5079698;28;20043;-76
2021/11/28 06:14:49;;;;;;;1.50;1.40;;;16.20;44.50;;;;;;5072015;28;20504;-76
2021/11/28 06:17:14;;;;;;;1.15;1.05;;;16.10;44.60;;;;;;5071395;28;20523;-76
2021/11/28 06:19:40;;;;;;;1.40;1.23;;;16.10;44.40;;;;;;5071356;28;20110;-76
2021/11/28 06:22:08;;;;;;;1.35;1.25;;;16.10;44.50;;;;;;5072421;28;20055;-76
2021/11/28 06:24:35;;;;;;;1.52;1.30;;;16.10;44.50;;;;;;5070402;28;20040;-76
2021/11/28 06:27:02;;;;;;;1.15;1.10;;;16.10;44.50;;;;;;5071213;28;20458;-78
2021/11/28 06:29:27;;;;;;;1.70;1.15;;;16.10;44.60;;;;;;5071376;28;20389;-77
2021/11/28 06:31:53;;;;;;;1.23;1.13;;;16.20;44.50;;;;;;5054978;28;20044;-76
2021/11/28 06:34:19;;;;;;;1.77;1.20;;;16.30;44.30;;;;;;5079864;28;20044;-76
2021/11/28 06:36:45;;;;;;;1.42;1.00;;;16.30;44.10;;;;;;5054069;28;20056;-76
2021/11/28 06:39:10;;;;;;;1.48;1.15;;;16.40;44.00;;;;;;5071088;28;20125;-77
2021/11/28 06:41:36;;;;;;;1.85;0.90;;;16.50;45.00;;;;;;5071343;28;20040;-77
2021/11/28 06:44:02;;;;;;;1.60;1.10;;;16.60;43.70;;;;;;5076483;28;20512;-78
2021/11/28 06:46:28;;;;;;;0.80;0.80;;;16.70;43.60;;;;;;5071228;28;20044;-76
2021/11/28 06:48:54;;;;;;;1.88;0.80;;;16.70;43.40;;;;;;5053658;28;20053;-76
2021/11/28 06:51:20;;;;;;;1.10;1.00;;;16.90;43.30;;;;;;5070667;28;20044;-77
2021/11/28 06:53:45;;;;;;;1.08;0.98;;;17.00;43.10;;;;;;5071969;28;20119;-77
2021/11/28 06:56:11;;;;;;;1.17;1.08;;;17.10;42.90;;;;;;5070646;28;20044;-77
2021/11/28 06:58:37;;;;;;;0.70;0.70;;;17.20;42.70;;;;;;5070980;28;20040;-76
2021/11/28 07:01:04;;;;;;;1.05;0.95;;;17.20;42.50;;;;;;5070822;28;20048;-78
2021/11/28 07:03:30;;;;;;;1.02;0.90;;;17.40;42.30;;;;;;5071469;28;20082;-78
2021/11/28 07:05:55;;;;;;;0.80;0.70;;;17.40;42.20;;;;;;5070846;28;20048;-79
2021/11/28 07:08:21;;;;;;;0.60;0.60;;;17.70;42.00;;;;;;5069928;28;20416;-78
2021/11/28 07:10:47;;;;;;;0.60;0.60;;;17.80;41.70;;;;;;5052774;28;20079;-77
2021/11/28 07:13:13;;;;;;;0.85;0.70;;;17.90;41.30;;;;;;5069968;28;20059;-77
2021/11/28 07:15:40;;;;;;;0.65;0.65;;;18.00;41.20;;;;;;5071183;28;20041;-79
2021/11/28 07:18:06;;;;;;;0.80;0.60;;;18.00;41.30;;;;;;5056239;28;20102;-79
2021/11/28 07:20:33;;;;;;;0.80;0.70;;;18.10;41.20;;;;;;5070637;28;20048;-78
2021/11/28 07:23:00;;;;;;;0.80;0.80;;;18.10;41.20;;;;;;5070414;28;20044;-77
2021/11/28 07:25:26;;;;;;;0.93;0.70;;;18.10;41.20;;;;;;5078493;28;20271;-77
2021/11/28 07:27:52;;;;;;;0.75;0.75;;;18.10;41.20;;;;;;5073725;28;20432;-78
2021/11/28 07:30:18;;;;;;;0.60;0.60;;;18.10;41.30;;;;;;5069874;28;20049;-77
2021/11/28 07:32:44;;;;;;;0.60;0.60;;;18.20;41.20;;;;;;5070126;28;20117;-77
2021/11/28 07:35:09;;;;;;;0.68;0.65;;;18.20;41.10;;;;;;5070775;28;20056;-77
2021/11/28 07:37:35;;;;;;;0.65;0.65;;;18.10;41.30;;;;;;5052489;28;20071;-77
2021/11/28 07:40:02;;;;;;;0.70;0.70;;;18.00;41.40;;;;;;5070160;28;20036;-77
2021/11/28 07:42:27;;;;;;;0.98;0.90;;;18.10;41.50;;;;;;5069747;28;20297;-78
2021/11/28 07:44:53;;;;;;;1.33;1.08;;;18.00;41.60;;;;;;5069947;28;20048;-76
2021/11/28 07:47:19;;;;;;;1.50;0.88;;;18.00;41.70;;;;;;5070576;28;20044;-77
2021/11/28 07:49:44;;;;;;;0.50;0.50;;;18.00;41.70;;;;;;5069888;28;20045;-77
2021/11/28 07:52:10;;;;;;;0.60;0.60;;;18.00;41.50;;;;;;5051917;28;20481;-77
2021/11/28 07:54:36;;;;;;;0.40;0.40;;;18.00;41.50;;;;;;5069979;28;20414;-76
2021/11/28 07:57:02;;;;;;;0.70;0.70;;;18.00;41.50;;;;;;5070012;28;20490;-76
2021/11/28 07:59:29;;;;;;;0.60;0.60;;;18.00;41.50;;;;;;5069106;28;20548;-76
2021/11/28 08:01:55;;;;;;;0.50;0.50;;;17.90;41.60;;;;;;5054680;28;20130;-77
2021/11/28 08:04:21;;;;;;;0.80;0.60;;;17.90;41.60;;;;;;5076350;28;20039;-76
2021/11/28 08:06:47;;;;;;;0.65;0.65;;;17.90;41.80;;;;;;5074518;28;20059;-77
2021/11/28 08:09:13;;;;;;;0.60;0.60;;;17.80;41.90;;;;;;5065631;28;20358;-77
2021/11/28 08:11:38;;;;;;;0.50;0.50;;;17.80;41.90;;;;;;5051151;28;20492;-76
2021/11/28 08:14:04;;;;;;;0.50;0.50;;;17.80;41.90;;;;;;5068825;28;20492;-76
2021/11/28 08:16:30;;;;;;;0.68;0.68;;;17.80;41.90;;;;;;5068399;28;20723;-77
2021/11/28 08:18:56;;;;;;;0.70;0.68;;;17.90;42.00;;;;;;5051099;28;20508;-76
2021/11/28 08:21:26;;;;;;;0.65;0.65;;;17.90;41.90;;;;;;5051529;28;20083;-76
2021/11/28 08:23:52;;;;;;;;;;;18.00;41.70;;;;;;5066477;28;20548;-78
2021/11/28 08:26:17;;;;;;;0.63;0.63;;;17.90;41.70;;;;;;5050242;28;19920;-77
2021/11/28 08:28:44;;;;;;;0.47;0.47;;;18.00;41.60;;;;;;5067797;28;20057;-78
2021/11/28 08:31:10;;;;;;;0.50;0.50;;;18.10;41.50;;;;;;5058418;28;20068;-80
2021/11/28 08:33:36;;;;;;;0.55;0.55;;;18.10;41.50;;;;;;5073380;28;20052;-78
2021/11/28 08:36:02;;;;;;;0.63;0.63;;;18.10;41.40;;;;;;5077067;28;20089;-74
2021/11/28 08:38:28;;;;;;;0.40;0.40;;;18.00;41.60;;;;;;5071732;28;20048;-76
2021/11/28 08:40:54;;;;;;;0.43;0.43;;;18.10;41.80;;;;;;5077631;28;20050;-75
2021/11/28 08:43:20;;;;;;;1.25;0.70;;;18.00;42.00;;;;;;5074263;28;20076;-76
2021/11/28 08:45:46;;;;;;;0.50;0.50;;;18.10;42.10;;;;;;5054924;28;20098;-75
2021/11/28 08:48:13;;;;;;;0.57;0.50;;;18.20;42.30;;;;;;5058081;28;20051;-79
2021/11/28 08:50:39;;;;;;;0.70;0.40;;;18.30;42.30;;;;;;5072107;28;20492;-75
2021/11/28 08:53:05;;;;;;;0.65;0.50;;;18.30;42.30;;;;;;5073501;28;20077;-78
2021/11/28 08:55:33;;;;;;;2.25;0.55;;;18.40;42.20;;;;;;5054154;28;20032;-76
2021/11/28 08:57:58;;;;;;;0.57;0.57;;;18.40;42.50;;;;;;5074601;28;20158;-76
2021/11/28 09:00:25;;;;;;;2.15;0.63;;;18.30;42.80;;;;;;5073561;28;20119;-76
2021/11/28 09:02:51;;;;;;;3.20;0.80;;;18.30;43.20;;;;;;5073625;28;20051;-77
2021/11/28 09:05:19;;;;;;;1.65;0.40;;;18.40;43.10;;;;;;5075190;28;20048;-76
2021/11/28 09:07:46;;;;;;;0.50;0.50;;;18.40;43.20;;;;;;5072343;28;20124;-75
2021/11/28 09:10:14;;;;;;;0.63;0.50;;;18.40;43.10;;;;;;5060847;28;20132;-77
2021/11/28 09:12:41;;;;;;;0.40;0.40;;;18.50;43.10;;;;;;5065930;28;20076;-76
2021/11/28 09:15:07;;;;;;;2.80;0.73;;;18.50;43.00;;;;;;5068916;28;20067;-76
2021/11/28 09:17:32;;;;;;;0.55;0.50;;;18.50;43.00;;;;;;5067125;28;20066;-76
2021/11/28 09:20:04;;;;;;;1.05;0.52;;;18.50;42.80;;;;;;5051155;28;20048;-76
2021/11/28 09:25:05;;;;;;;0.63;0.63;;;18.60;42.70;;;;;;5069479;28;20052;-76
2021/11/28 09:27:31;;;;;;;2.10;0.60;;;18.50;43.00;;;;;;5068996;28;20095;-77
2021/11/28 09:29:57;;;;;;;7.43;0.50;;;18.50;43.00;;;;;;5051731;28;20068;-77
2021/11/28 09:32:23;;;;;;;1.98;0.50;;;18.50;43.00;;;;;;5034824;28;20052;-75
2021/11/28 09:34:49;;;;;;;0.60;0.60;;;18.60;42.90;;;;;;5068672;28;20484;-75
2021/11/28 09:37:15;;;;;;;0.55;0.52;;;18.50;43.00;;;;;;5052315;28;20143;-75
2021/11/28 09:39:45;;;;;;;2.05;0.60;;;18.50;44.10;;;;;;5072440;28;20044;-76
2021/11/28 09:42:15;;;;;;;5.65;0.60;;;18.50;43.10;;;;;;5072580;28;20052;-77
2021/11/28 09:44:42;;;;;;;0.73;0.40;;;18.50;42.90;;;;;;5071095;28;20036;-76
2021/11/28 09:47:10;;;;;;;0.40;0.40;;;18.50;42.80;;;;;;5071737;28;20052;-75
2021/11/28 09:49:38;;;;;;;5.32;0.70;;;18.50;42.80;;;;;;5070819;28;20048;-76
2021/11/28 09:52:08;;;;;;;2.60;0.40;;;18.50;42.90;;;;;;5071647;28;20128;-76
2021/11/28 09:54:39;;;;;;;3.30;0.77;;;18.50;42.80;;;;;;5071846;28;20492;-76
2021/11/28 09:57:05;;;;;;;5.10;0.45;;;18.50;42.70;;;;;;5056571;28;20054;-77
2021/11/28 09:59:31;;;;;;;2.22;0.75;;;18.50;42.90;;;;;;5075004;28;20044;-75
2021/11/28 10:01:58;;;;;;;1.55;0.65;;;18.60;42.90;;;;;;5063185;28;20091;-76
2021/11/28 10:04:23;;;;;;;1.70;0.43;;;18.50;42.90;;;;;;5073742;28;20047;-77
2021/11/28 10:06:50;;;;;;;1.85;0.85;;;18.50;42.70;;;;;;5058525;28;20119;-76
2021/11/28 10:09:16;;;;;;;2.63;0.40;;;18.60;42.50;;;;;;5069498;28;20045;-76
2021/11/28 10:11:42;;;;;;;1.58;0.32;;;18.50;42.50;;;;;;5060607;28;20056;-75
2021/11/28 10:14:13;;;;;;;1.73;0.40;;;18.50;42.50;;;;;;5071662;28;20053;-75
2021/11/28 10:16:40;;;;;;;1.60;0.50;;;18.50;42.40;;;;;;5051255;28;20839;-75
2021/11/28 10:19:07;;;;;;;3.95;0.35;;;18.60;42.40;;;;;;5070507;28;20052;-73
2021/11/28 10:21:33;;;;;;;1.40;0.73;;;18.50;42.30;;;;;;5070257;28;20040;-73
2021/11/28 10:24:05;;;;;;;6.30;0.50;;;18.50;42.30;;;;;;5071085;28;20074;-77
2021/11/28 10:26:32;;;;;;;0.40;0.40;;;18.50;42.50;;;;;;5041840;28;20063;-75
2021/11/28 10:29:11;;;;;;;2.90;0.40;;;18.50;42.30;;;;;;5076359;28;20048;-76
2021/11/28 10:31:48;;;;;;;7.67;0.50;;;18.50;42.30;;;;;;5086842;27;20047;-76
2021/11/28 10:34:16;;;;;;;2.20;0.40;;;18.60;42.40;;;;;;5053010;28;20102;-77
2021/11/28 10:36:42;;;;;;;6.60;0.40;;;18.60;42.20;;;;;;5055471;28;20196;-76
2021/11/28 10:39:25;;;;;;;2.88;0.40;;;18.50;42.20;;;;;;5071248;28;20052;-76
2021/11/28 10:41:54;;;;;;;2.40;0.60;;;18.60;42.00;;;;;;5071208;28;20048;-76
2021/11/28 10:44:23;;;;;;;1.13;0.43;;;18.60;41.90;;;;;;5083719;28;20056;-76
2021/11/28 10:46:50;;;;;;;1.40;0.82;;;18.60;41.90;;;;;;5081244;28;20471;-76
2021/11/28 10:49:19;;;;;;;5.88;1.77;;;18.50;42.00;;;;;;5088475;28;20086;-77
2021/11/28 10:51:48;;;;;;;6.73;0.53;;;18.50;42.00;;;;;;5087891;28;20910;-76
2021/11/28 10:54:45;;;;;;;1.15;0.40;;;18.50;42.10;;;;;;5087488;28;20062;-75
2021/11/28 10:57:11;;;;;;;1.20;0.40;;;18.50;42.00;;;;;;5078658;28;20083;-76
2021/11/28 11:00:00;;;;;;;0.68;0.30;;;18.50;42.20;;;;;;5087247;28;20059;-75
2021/11/28 11:02:29;;;;;;;1.67;0.30;;;18.40;42.20;;;;;;5069906;28;20048;-79
2021/11/28 11:04:57;;;;;;;1.55;0.30;;;18.40;42.20;;;;;;5105012;28;20044;-75
2021/11/28 11:07:25;;;;;;;3.45;0.28;;;18.40;42.20;;;;;;5083898;28;20483;-76
2021/11/28 11:09:55;;;;;;;2.60;0.32;;;18.40;42.20;;;;;;5087539;28;20085;-76
2021/11/28 11:12:28;;;;;;;0.90;0.57;;;18.40;42.20;;;;;;5091175;28;20446;-76
2021/11/28 11:14:56;;;;;;;5.30;0.40;;;18.50;42.20;;;;;;5069577;28;20408;-80
2021/11/28 11:17:23;;;;;;;3.33;0.50;;;18.40;42.20;;;;;;5111008;27;20056;-78
2021/11/28 11:19:49;;;;;;;2.85;0.40;;;18.40;42.20;;;;;;5080612;28;20123;-76
2021/11/28 11:22:25;;;;;;;3.20;0.50;;;18.40;42.00;;;;;;5070338;28;20131;-77
2021/11/28 11:25:10;;;;;;;11.75;1.02;;;18.40;42.20;;;;;;5056913;28;20108;-76
2021/11/28 11:27:41;;;;;;;1.83;0.35;;;18.40;42.00;;;;;;5069415;28;20481;-80
2021/11/28 11:30:10;;;;;;;2.72;0.52;;;18.40;42.00;;;;;;5069124;28;20056;-80
2021/11/28 11:32:45;;;;;;;3.83;0.40;;;18.50;41.90;;;;;;5070693;28;20056;-80
2021/11/28 11:35:40;;;;;;;2.45;0.50;;;18.50;42.00;;;;;;5070485;28;20052;-80
2021/11/28 11:38:12;;;;;;;1.20;0.47;;;18.60;42.00;;;;;;5054287;28;20062;-79
2021/11/28 11:40:39;;;;;;;10.13;0.52;;;18.70;41.80;;;;;;5076542;28;20058;-79
2021/11/28 11:43:06;;;;;;;2.40;0.30;;;18.70;41.70;;;;;;5072719;28;20123;-80
2021/11/28 11:45:36;;;;;;;3.13;0.40;;;18.70;41.80;;;;;;5069462;28;20246;-81
2021/11/28 11:48:03;;;;;;;1.98;0.30;;;18.80;41.90;;;;;;5073934;28;20052;-77
2021/11/28 11:50:32;;;;;;;2.60;0.57;;;18.80;42.00;;;;;;5076960;28;20046;-82
2021/11/28 11:52:58;;;;;;;2.47;0.40;;;18.80;41.80;;;;;;5087273;28;20089;-77
2021/11/28 11:55:30;;;;;;;1.98;0.63;;;18.80;42.00;;;;;;5084915;28;20036;-77
2021/11/28 11:58:30;;;;;;;0.70;0.50;;;18.70;42.00;;;;;;5087334;28;20040;-78
2021/11/28 12:01:01;;;;;;;5.95;0.70;;;18.80;42.40;;;;;;5084681;28;20047;-78
2021/11/28 12:03:27;;;;;;;1.38;0.47;;;18.70;42.80;;;;;;5103599;28;20437;-74
2021/11/28 12:05:55;;;;;;;5.38;0.75;;;18.70;42.80;;;;;;5085508;28;20097;-75
2021/11/28 12:08:22;;;;;;;1.13;0.50;;;18.80;43.00;;;;;;5086474;28;20036;-76
2021/11/28 12:11:07;;;;;;;10.07;0.85;;;18.70;43.30;;;;;;5100345;28;20056;-73
2021/11/28 12:13:32;;;;;;;7.45;0.63;;;18.70;43.70;;;;;;5077378;28;20075;-78
2021/11/28 12:16:07;;;;;;;6.15;0.70;;;18.80;43.90;;;;;;5069449;28;20087;-77
2021/11/28 12:18:46;;;;;;;5.43;1.00;;;18.80;43.70;;;;;;5079268;28;20055;-79
2021/11/28 12:21:15;;;;;;;5.38;0.70;;;18.80;43.70;;;;;;5082932;28;20043;-76
2021/11/28 12:24:00;;;;;;;4.05;0.60;;;18.70;43.40;;;;;;5076407;28;20063;-75
2021/11/28 12:26:26;;;;;;;6.45;0.60;;;18.70;43.70;;;;;;5068481;28;20634;-77
2021/11/28 12:28:58;;;;;;;4.22;0.57;;;18.70;44.70;;;;;;5082018;28;20074;-76
2021/11/28 12:31:33;;;;;;;4.63;0.57;;;18.60;43.60;;;;;;5072475;28;20484;-76
2021/11/28 12:34:06;;;;;;;6.90;0.90;;;18.70;43.60;;;;;;5070704;28;20036;-75
2021/11/28 12:36:35;;;;;;;2.05;0.95;;;18.80;43.50;;;;;;5083162;28;20084;-79
2021/11/28 12:39:16;;;;;;;2.57;0.50;;;18.70;43.40;;;;;;5071698;28;20052;-76
2021/11/28 12:41:45;;;;;;;4.20;0.63;;;18.70;43.50;;;;;;5082375;28;20040;-75
2021/11/28 12:44:12;;;;;;;3.70;0.70;;;18.70;43.40;;;;;;5093096;28;20373;-75
2021/11/28 12:46:51;;;;;;;4.40;0.52;;;18.60;43.30;;;;;;5094334;28;20055;-76
2021/11/28 12:49:29;;;;;;;3.65;0.50;;;18.60;43.60;;;;;;5075837;28;20040;-77
2021/11/28 12:52:22;;;;;;;1.45;0.38;;;18.60;43.70;;;;;;5085820;28;20056;-76
2021/11/28 12:55:03;;;;;;;9.35;0.65;;;18.60;43.50;;;;;;5068206;28;20543;-78
2021/11/28 12:58:01;;;;;;;3.55;0.52;;;18.70;43.60;;;;;;5068894;28;20127;-78
2021/11/28 13:00:29;;;;;;;7.72;0.85;;;18.70;43.40;;;;;;5056959;28;20053;-74
2021/11/28 13:03:15;;;;;;;10.52;0.80;;;18.70;43.40;;;;;;5075962;28;20128;-78